sensor_id;sensor_type;location;lat;lon;timestamp;pressure;altitude;pressure_sealevel;temperature;humidity
20017;BME280;10169;42.664;23.610;2023-03-31T00:00:07;95247.06;;;5.67;100.00
20017;BME280;10169;42.664;23.610;2023-03-31T00:02:10;95243.22;;;5.56;100.00
20017;BME280;10169;42.664;23.610;2023-03-31T00:04:14;95238.41;;;5.40;100.00
20017;BME280;10169;42.664;23.610;2023-03-31T00:06:14;95234.66;;;5.23;100.00
20017;BME280;10169;42.664;23.610;2023-03-31T00:08:17;95240.31;;;5.20;100.00
20017;BME280;10169;42.664;23.610;2023-03-31T00:10:18;95239.13;;;5.16;100.00
20017;BME280;10169;42.664;23.610;2023-03-31T00:12:18;95233.25;;;5.14;100.00
20017;BME280;10169;42.664;23.610;2023-03-31T00:14:19;95227.75;;;5.29;100.00
20017;BME280;10169;42.664;23.610;2023-03-31T00:16:20;95238.84;;;5.37;100.00
20017;BME280;10169;42.664;23.610;2023-03-31T00:18:20;95241.53;;;5.24;100.00
20017;BME280;10169;42.664;23.610;2023-03-31T00:20:21;95234.47;;;5.11;100.00
20017;BME280;10169;42.664;23.610;2023-03-31T00:22:22;95233.25;;;5.14;100.00
20017;BME280;10169;42.664;23.610;2023-03-31T00:24:29;95229.03;;;5.13;100.00
20017;BME280;10169;42.664;23.610;2023-03-31T00:26:32;95229.41;;;5.10;100.00
20017;BME280;10169;42.664;23.610;2023-03-31T00:28:33;95225.56;;;5.12;100.00
20017;BME280;10169;42.664;23.610;2023-03-31T00:30:33;95239.97;;;5.03;100.00
20017;BME280;10169;42.664;23.610;2023-03-31T00:32:34;95234.28;;;5.00;100.00
20017;BME280;10169;42.664;23.610;2023-03-31T00:34:34;95230.28;;;4.97;100.00
20017;BME280;10169;42.664;23.610;2023-03-31T00:36:35;95226.22;;;5.01;100.00
20017;BME280;10169;42.664;23.610;2023-03-31T00:38:45;95232.69;;;5.05;100.00
20017;BME280;10169;42.664;23.610;2023-03-31T00:40:45;95226.00;;;5.03;100.00
20017;BME280;10169;42.664;23.610;2023-03-31T00:42:46;95227.66;;;4.97;100.00
20017;BME280;10169;42.664;23.610;2023-03-31T00:47:12;95213.06;;;4.95;100.00
20017;BME280;10169;42.664;23.610;2023-03-31T00:49:16;95213.69;;;4.84;100.00
20017;BME280;10169;42.664;23.610;2023-03-31T00:51:20;95208.59;;;4.89;100.00
20017;BME280;10169;42.664;23.610;2023-03-31T00:53:22;95210.44;;;4.95;100.00
20017;BME280;10169;42.664;23.610;2023-03-31T00:55:27;95209.22;;;4.91;100.00
20017;BME280;10169;42.664;23.610;2023-03-31T00:57:29;95202.34;;;4.90;100.00
20017;BME280;10169;42.664;23.610;2023-03-31T00:59:33;95207.81;;;4.95;100.00
20017;BME280;10169;42.664;23.610;2023-03-31T01:01:36;95201.06;;;5.05;100.00
20017;BME280;10169;42.664;23.610;2023-03-31T01:03:39;95201.47;;;5.09;100.00
20017;BME280;10169;42.664;23.610;2023-03-31T01:07:43;95196.84;;;4.98;100.00
20017;BME280;10169;42.664;23.610;2023-03-31T01:09:45;95199.09;;;4.94;100.00
20017;BME280;10169;42.664;23.610;2023-03-31T01:11:46;95201.13;;;4.92;100.00
20017;BME280;10169;42.664;23.610;2023-03-31T01:13:46;95195.84;;;4.99;100.00
20017;BME280;10169;42.664;23.610;2023-03-31T01:15:49;95199.63;;;5.09;100.00
20017;BME280;10169;42.664;23.610;2023-03-31T01:17:50;95196.38;;;5.14;100.00
20017;BME280;10169;42.664;23.610;2023-03-31T01:33:14;95201.94;;;5.44;100.00
20017;BME280;10169;42.664;23.610;2023-03-31T01:46:20;95214.25;;;5.50;100.00
20017;BME280;10169;42.664;23.610;2023-03-31T01:50:47;95214.56;;;5.73;100.00
20017;BME280;10169;42.664;23.610;2023-03-31T01:57:23;95220.00;;;5.84;100.00
20017;BME280;10169;42.664;23.610;2023-03-31T01:59:27;95215.44;;;5.60;100.00
20017;BME280;10169;42.664;23.610;2023-03-31T02:01:36;95221.00;;;5.39;100.00
20017;BME280;10169;42.664;23.610;2023-03-31T02:03:39;95224.28;;;5.28;100.00
20017;BME280;10169;42.664;23.610;2023-03-31T02:05:44;95220.09;;;5.14;100.00
20017;BME280;10169;42.664;23.610;2023-03-31T02:10:10;95220.09;;;5.14;100.00
20017;BME280;10169;42.664;23.610;2023-03-31T02:12:12;95224.13;;;5.17;100.00
20017;BME280;10169;42.664;23.610;2023-03-31T02:14:13;95222.47;;;5.29;100.00
20017;BME280;10169;42.664;23.610;2023-03-31T02:16:18;95229.56;;;5.28;100.00
20017;BME280;10169;42.664;23.610;2023-03-31T02:18:24;95234.28;;;5.13;100.00
20017;BME280;10169;42.664;23.610;2023-03-31T02:20:26;95248.47;;;5.12;100.00
20017;BME280;10169;42.664;23.610;2023-03-31T02:22:28;95248.63;;;5.24;100.00
20017;BME280;10169;42.664;23.610;2023-03-31T02:24:30;95249.25;;;5.19;100.00
20017;BME280;10169;42.664;23.610;2023-03-31T02:26:52;95255.72;;;5.23;100.00
20017;BME280;10169;42.664;23.610;2023-03-31T02:28:53;95248.59;;;5.30;100.00
20017;BME280;10169;42.664;23.610;2023-03-31T02:32:54;95245.59;;;5.20;100.00
20017;BME280;10169;42.664;23.610;2023-03-31T02:34:55;95242.75;;;5.28;100.00
20017;BME280;10169;42.664;23.610;2023-03-31T02:36:55;95262.22;;;5.14;100.00
20017;BME280;10169;42.664;23.610;2023-03-31T02:39:03;95248.88;;;5.09;100.00
20017;BME280;10169;42.664;23.610;2023-03-31T02:41:05;95250.25;;;5.18;100.00
20017;BME280;10169;42.664;23.610;2023-03-31T02:43:06;95262.00;;;5.29;100.00
20017;BME280;10169;42.664;23.610;2023-03-31T02:45:33;95277.63;;;5.17;100.00
20017;BME280;10169;42.664;23.610;2023-03-31T02:47:27;95271.31;;;5.31;100.00
20017;BME280;10169;42.664;23.610;2023-03-31T02:49:27;95277.94;;;5.40;100.00
20017;BME280;10169;42.664;23.610;2023-03-31T02:53:39;95277.41;;;5.25;100.00
20017;BME280;10169;42.664;23.610;2023-03-31T03:01:54;95281.09;;;5.04;100.00
20017;BME280;10169;42.664;23.610;2023-03-31T03:14:54;95279.44;;;5.17;100.00
20017;BME280;10169;42.664;23.610;2023-03-31T03:17:20;95269.94;;;5.22;100.00
20017;BME280;10169;42.664;23.610;2023-03-31T03:19:21;95268.84;;;5.36;100.00
20017;BME280;10169;42.664;23.610;2023-03-31T03:21:21;95273.53;;;5.28;100.00
20017;BME280;10169;42.664;23.610;2023-03-31T03:23:22;95263.63;;;5.23;100.00
20017;BME280;10169;42.664;23.610;2023-03-31T03:25:22;95252.09;;;5.24;100.00
20017;BME280;10169;42.664;23.610;2023-03-31T03:27:23;95243.38;;;5.24;100.00
20017;BME280;10169;42.664;23.610;2023-03-31T03:29:23;95256.78;;;5.16;100.00
20017;BME280;10169;42.664;23.610;2023-03-31T03:31:24;95262.81;;;5.16;100.00
20017;BME280;10169;42.664;23.610;2023-03-31T03:33:24;95249.69;;;5.09;100.00
20017;BME280;10169;42.664;23.610;2023-03-31T03:35:25;95252.09;;;5.18;100.00
20017;BME280;10169;42.664;23.610;2023-03-31T03:37:25;95247.25;;;5.08;100.00
20017;BME280;10169;42.664;23.610;2023-03-31T03:39:26;95239.97;;;5.03;100.00
20017;BME280;10169;42.664;23.610;2023-03-31T03:41:26;95249.91;;;5.01;100.00
20017;BME280;10169;42.664;23.610;2023-03-31T03:43:26;95248.09;;;5.02;100.00
20017;BME280;10169;42.664;23.610;2023-03-31T03:45:27;95253.50;;;5.13;100.00
20017;BME280;10169;42.664;23.610;2023-03-31T03:47:27;95251.91;;;5.12;100.00
20017;BME280;10169;42.664;23.610;2023-03-31T03:49:27;95242.75;;;5.22;100.00
20017;BME280;10169;42.664;23.610;2023-03-31T03:51:28;95240.31;;;5.20;100.00
20017;BME280;10169;42.664;23.610;2023-03-31T03:53:28;95239.53;;;5.20;100.00
20017;BME280;10169;42.664;23.610;2023-03-31T03:55:28;95249.81;;;5.34;100.00
20017;BME280;10169;42.664;23.610;2023-03-31T03:57:28;95241.50;;;5.37;100.00
20017;BME280;10169;42.664;23.610;2023-03-31T03:59:29;95235.63;;;5.35;100.00
20017;BME280;10169;42.664;23.610;2023-03-31T04:01:29;95240.91;;;5.35;100.00
20017;BME280;10169;42.664;23.610;2023-03-31T04:03:30;95240.47;;;5.38;100.00
20017;BME280;10169;42.664;23.610;2023-03-31T04:05:31;95236.59;;;5.41;100.00
20017;BME280;10169;42.664;23.610;2023-03-31T04:07:31;95235.78;;;5.40;100.00
20017;BME280;10169;42.664;23.610;2023-03-31T04:09:31;95234.16;;;5.46;100.00
20017;BME280;10169;42.664;23.610;2023-03-31T04:11:32;95226.44;;;5.51;100.00
20017;BME280;10169;42.664;23.610;2023-03-31T04:13:32;95226.22;;;5.52;100.00
20017;BME280;10169;42.664;23.610;2023-03-31T04:15:32;95224.19;;;5.54;100.00
20017;BME280;10169;42.664;23.610;2023-03-31T04:17:32;95225.78;;;5.62;100.00
20017;BME280;10169;42.664;23.610;2023-03-31T04:19:33;95228.22;;;5.57;100.00
20017;BME280;10169;42.664;23.610;2023-03-31T04:21:34;95226.38;;;5.64;100.00
20017;BME280;10169;42.664;23.610;2023-03-31T04:23:35;95225.75;;;5.68;100.00
20017;BME280;10169;42.664;23.610;2023-03-31T04:25:41;95225.91;;;5.73;100.00
20017;BME280;10169;42.664;23.610;2023-03-31T04:27:46;95230.75;;;5.76;100.00
20017;BME280;10169;42.664;23.610;2023-03-31T04:29:49;95233.34;;;5.83;100.00
20017;BME280;10169;42.664;23.610;2023-03-31T04:31:54;95236.78;;;5.90;100.00
20017;BME280;10169;42.664;23.610;2023-03-31T04:33:57;95237.53;;;6.04;100.00
20017;BME280;10169;42.664;23.610;2023-03-31T04:36:01;95234.03;;;6.10;100.00
20017;BME280;10169;42.664;23.610;2023-03-31T04:38:06;95228.59;;;6.05;100.00
20017;BME280;10169;42.664;23.610;2023-03-31T04:40:08;95223.69;;;6.08;100.00
20017;BME280;10169;42.664;23.610;2023-03-31T04:42:08;95225.50;;;6.08;100.00
20017;BME280;10169;42.664;23.610;2023-03-31T04:44:09;95221.47;;;6.12;100.00
20017;BME280;10169;42.664;23.610;2023-03-31T04:46:10;95220.59;;;6.18;100.00
20017;BME280;10169;42.664;23.610;2023-03-31T04:48:10;95225.09;;;6.11;100.00
20017;BME280;10169;42.664;23.610;2023-03-31T04:50:10;95212.69;;;6.18;100.00
20017;BME280;10169;42.664;23.610;2023-03-31T04:52:10;95215.50;;;6.23;100.00
20017;BME280;10169;42.664;23.610;2023-03-31T04:54:11;95216.31;;;6.17;100.00
20017;BME280;10169;42.664;23.610;2023-03-31T04:56:11;95219.56;;;6.19;100.00
20017;BME280;10169;42.664;23.610;2023-03-31T04:58:12;95224.41;;;6.22;100.00
20017;BME280;10169;42.664;23.610;2023-03-31T05:00:12;95219.47;;;6.32;100.00
20017;BME280;10169;42.664;23.610;2023-03-31T05:02:13;95215.69;;;6.46;100.00
20017;BME280;10169;42.664;23.610;2023-03-31T05:04:15;95220.91;;;6.52;100.00
20017;BME280;10169;42.664;23.610;2023-03-31T05:06:15;95224.91;;;6.62;100.00
20017;BME280;10169;42.664;23.610;2023-03-31T05:08:16;95229.31;;;6.68;100.00
20017;BME280;10169;42.664;23.610;2023-03-31T05:10:16;95221.59;;;6.66;100.00
20017;BME280;10169;42.664;23.610;2023-03-31T05:12:16;95212.91;;;6.84;100.00
20017;BME280;10169;42.664;23.610;2023-03-31T05:14:17;95217.00;;;6.80;100.00
20017;BME280;10169;42.664;23.610;2023-03-31T05:16:17;95211.44;;;6.70;100.00
20017;BME280;10169;42.664;23.610;2023-03-31T05:18:17;95207.16;;;6.69;100.00
20017;BME280;10169;42.664;23.610;2023-03-31T05:20:18;95196.59;;;6.69;100.00
20017;BME280;10169;42.664;23.610;2023-03-31T05:22:19;95199.88;;;6.64;100.00
20017;BME280;10169;42.664;23.610;2023-03-31T05:24:19;95194.63;;;6.82;100.00
20017;BME280;10169;42.664;23.610;2023-03-31T05:26:20;95171.31;;;6.79;100.00
20017;BME280;10169;42.664;23.610;2023-03-31T05:28:22;95192.59;;;7.02;100.00
20017;BME280;10169;42.664;23.610;2023-03-31T05:30:22;95194.31;;;6.97;100.00
20017;BME280;10169;42.664;23.610;2023-03-31T05:32:25;95193.06;;;6.99;100.00
20017;BME280;10169;42.664;23.610;2023-03-31T05:34:26;95189.88;;;7.09;100.00
20017;BME280;10169;42.664;23.610;2023-03-31T05:36:26;95181.22;;;7.20;100.00
20017;BME280;10169;42.664;23.610;2023-03-31T05:38:26;95180.28;;;7.32;100.00
20017;BME280;10169;42.664;23.610;2023-03-31T05:40:30;95189.28;;;7.43;100.00
20017;BME280;10169;42.664;23.610;2023-03-31T05:42:30;95190.84;;;7.32;100.00
20017;BME280;10169;42.664;23.610;2023-03-31T05:44:31;95189.03;;;7.45;100.00
20017;BME280;10169;42.664;23.610;2023-03-31T05:46:31;95188.75;;;7.53;100.00
20017;BME280;10169;42.664;23.610;2023-03-31T05:48:31;95185.34;;;7.64;100.00
20017;BME280;10169;42.664;23.610;2023-03-31T05:50:32;95182.53;;;7.77;100.00
20017;BME280;10169;42.664;23.610;2023-03-31T05:52:32;95177.50;;;7.87;100.00
20017;BME280;10169;42.664;23.610;2023-03-31T05:54:32;95182.16;;;8.15;100.00
20017;BME280;10169;42.664;23.610;2023-03-31T05:56:33;95185.78;;;8.20;100.00
20017;BME280;10169;42.664;23.610;2023-03-31T05:58:33;95174.41;;;8.31;100.00
20017;BME280;10169;42.664;23.610;2023-03-31T06:00:35;95181.13;;;8.68;100.00
20017;BME280;10169;42.664;23.610;2023-03-31T06:02:36;95173.63;;;8.77;100.00
20017;BME280;10169;42.664;23.610;2023-03-31T06:04:37;95171.91;;;8.94;100.00
20017;BME280;10169;42.664;23.610;2023-03-31T06:06:37;95169.13;;;9.01;100.00
20017;BME280;10169;42.664;23.610;2023-03-31T06:08:38;95169.22;;;9.06;100.00
20017;BME280;10169;42.664;23.610;2023-03-31T06:10:38;95181.75;;;9.22;100.00
20017;BME280;10169;42.664;23.610;2023-03-31T06:12:39;95178.88;;;9.23;100.00
20017;BME280;10169;42.664;23.610;2023-03-31T06:14:40;95186.94;;;9.17;100.00
20017;BME280;10169;42.664;23.610;2023-03-31T06:16:40;95186.47;;;9.31;100.00
20017;BME280;10169;42.664;23.610;2023-03-31T06:18:40;95180.63;;;9.18;100.00
20017;BME280;10169;42.664;23.610;2023-03-31T06:20:41;95182.88;;;9.26;100.00
20017;BME280;10169;42.664;23.610;2023-03-31T06:22:41;95187.47;;;9.42;100.00
20017;BME280;10169;42.664;23.610;2023-03-31T06:24:41;95194.03;;;9.39;100.00
20017;BME280;10169;42.664;23.610;2023-03-31T06:26:41;95189.72;;;9.22;100.00
20017;BME280;10169;42.664;23.610;2023-03-31T06:28:42;95190.38;;;9.40;100.00
20017;BME280;10169;42.664;23.610;2023-03-31T06:30:42;95186.56;;;9.48;100.00
20017;BME280;10169;42.664;23.610;2023-03-31T06:32:43;95182.84;;;9.49;100.00
20017;BME280;10169;42.664;23.610;2023-03-31T06:34:43;95182.94;;;9.54;100.00
20017;BME280;10169;42.664;23.610;2023-03-31T06:36:43;95177.38;;;9.67;100.00
20017;BME280;10169;42.664;23.610;2023-03-31T06:38:44;95179.63;;;9.75;100.00
20017;BME280;10169;42.664;23.610;2023-03-31T06:40:45;95183.25;;;9.97;100.00
20017;BME280;10169;42.664;23.610;2023-03-31T06:42:45;95191.22;;;9.97;100.00
20017;BME280;10169;42.664;23.610;2023-03-31T06:44:45;95181.63;;;9.96;100.00
20017;BME280;10169;42.664;23.610;2023-03-31T06:46:46;95178.38;;;10.23;100.00
20017;BME280;10169;42.664;23.610;2023-03-31T06:48:46;95176.06;;;10.26;100.00
20017;BME280;10169;42.664;23.610;2023-03-31T06:50:46;95182.97;;;10.27;100.00
20017;BME280;10169;42.664;23.610;2023-03-31T06:52:47;95184.41;;;10.18;100.00
20017;BME280;10169;42.664;23.610;2023-03-31T06:54:47;95182.66;;;9.95;100.00
20017;BME280;10169;42.664;23.610;2023-03-31T06:56:47;95195.00;;;10.01;100.00
20017;BME280;10169;42.664;23.610;2023-03-31T06:58:48;95188.09;;;9.89;100.00
20017;BME280;10169;42.664;23.610;2023-03-31T07:00:48;95177.44;;;10.00;100.00
20017;BME280;10169;42.664;23.610;2023-03-31T07:02:48;95176.44;;;10.18;100.00
20017;BME280;10169;42.664;23.610;2023-03-31T07:04:49;95170.91;;;10.36;100.00
20017;BME280;10169;42.664;23.610;2023-03-31T07:06:49;95172.47;;;10.49;100.00
20017;BME280;10169;42.664;23.610;2023-03-31T07:08:49;95165.69;;;10.74;100.00
20017;BME280;10169;42.664;23.610;2023-03-31T07:10:52;95169.00;;;11.03;100.00
20017;BME280;10169;42.664;23.610;2023-03-31T07:12:53;95170.84;;;11.41;100.00
20017;BME280;10169;42.664;23.610;2023-03-31T07:14:53;95166.69;;;11.28;100.00
20017;BME280;10169;42.664;23.610;2023-03-31T07:16:54;95151.59;;;11.55;100.00
20017;BME280;10169;42.664;23.610;2023-03-31T07:18:54;95141.41;;;11.69;100.00
20017;BME280;10169;42.664;23.610;2023-03-31T07:20:58;95141.81;;;12.09;100.00
20017;BME280;10169;42.664;23.610;2023-03-31T07:22:58;95138.00;;;12.32;100.00
20017;BME280;10169;42.664;23.610;2023-03-31T07:24:59;95133.16;;;12.61;100.00
20017;BME280;10169;42.664;23.610;2023-03-31T07:26:59;95122.19;;;12.94;100.00
20017;BME280;10169;42.664;23.610;2023-03-31T07:29:00;95119.13;;;13.12;100.00
20017;BME280;10169;42.664;23.610;2023-03-31T07:31:00;95105.56;;;13.24;100.00
20017;BME280;10169;42.664;23.610;2023-03-31T07:33:00;95117.75;;;13.71;97.74
20017;BME280;10169;42.664;23.610;2023-03-31T07:35:01;95114.00;;;13.62;94.95
20017;BME280;10169;42.664;23.610;2023-03-31T07:37:01;95119.91;;;13.69;94.29
20017;BME280;10169;42.664;23.610;2023-03-31T07:39:04;95127.09;;;13.79;92.32
20017;BME280;10169;42.664;23.610;2023-03-31T07:41:05;95129.53;;;13.91;91.81
20017;BME280;10169;42.664;23.610;2023-03-31T07:43:08;95130.16;;;14.23;90.41
20017;BME280;10169;42.664;23.610;2023-03-31T07:45:09;95135.75;;;14.26;88.47
20017;BME280;10169;42.664;23.610;2023-03-31T07:47:09;95137.38;;;14.37;91.77
20017;BME280;10169;42.664;23.610;2023-03-31T07:49:09;95127.25;;;14.75;89.10
20017;BME280;10169;42.664;23.610;2023-03-31T07:51:15;95134.44;;;14.99;84.84
20017;BME280;10169;42.664;23.610;2023-03-31T07:53:16;95123.38;;;15.21;85.51
20017;BME280;10169;42.664;23.610;2023-03-31T07:55:17;95127.69;;;15.22;76.89
20017;BME280;10169;42.664;23.610;2023-03-31T07:57:18;95104.88;;;15.40;77.53
20017;BME280;10169;42.664;23.610;2023-03-31T07:59:19;95123.50;;;15.65;74.03
20017;BME280;10169;42.664;23.610;2023-03-31T08:01:20;95116.88;;;15.52;71.06
20017;BME280;10169;42.664;23.610;2023-03-31T08:03:20;95122.50;;;15.41;72.91
20017;BME280;10169;42.664;23.610;2023-03-31T08:05:21;95117.47;;;15.44;75.25
20017;BME280;10169;42.664;23.610;2023-03-31T08:07:21;95111.00;;;15.45;72.31
20017;BME280;10169;42.664;23.610;2023-03-31T08:09:22;95119.69;;;15.76;71.54
20017;BME280;10169;42.664;23.610;2023-03-31T08:11:22;95113.47;;;15.90;67.09
20017;BME280;10169;42.664;23.610;2023-03-31T08:13:23;95119.44;;;16.21;64.44
20017;BME280;10169;42.664;23.610;2023-03-31T08:15:24;95114.31;;;15.86;66.80
20017;BME280;10169;42.664;23.610;2023-03-31T08:17:24;95108.63;;;15.92;66.12
20017;BME280;10169;42.664;23.610;2023-03-31T08:19:25;95114.22;;;16.01;66.48
20017;BME280;10169;42.664;23.610;2023-03-31T08:21:27;95098.06;;;16.11;64.45
20017;BME280;10169;42.664;23.610;2023-03-31T08:23:27;95092.38;;;16.23;63.24
20017;BME280;10169;42.664;23.610;2023-03-31T08:25:27;95090.75;;;16.60;64.87
20017;BME280;10169;42.664;23.610;2023-03-31T08:27:31;95090.97;;;16.64;62.09
20017;BME280;10169;42.664;23.610;2023-03-31T08:29:31;95084.09;;;16.53;64.78
20017;BME280;10169;42.664;23.610;2023-03-31T08:31:31;95071.94;;;15.93;65.51
20017;BME280;10169;42.664;23.610;2023-03-31T08:33:32;95080.06;;;16.17;62.18
20017;BME280;10169;42.664;23.610;2023-03-31T08:35:35;95081.84;;;16.31;59.20
20017;BME280;10169;42.664;23.610;2023-03-31T08:37:36;95070.94;;;16.56;57.97
20017;BME280;10169;42.664;23.610;2023-03-31T08:39:36;95071.53;;;16.43;57.19
20017;BME280;10169;42.664;23.610;2023-03-31T08:43:56;95077.47;;;16.07;56.66
20017;BME280;10169;42.664;23.610;2023-03-31T08:45:59;95073.47;;;15.99;57.78
20017;BME280;10169;42.664;23.610;2023-03-31T08:48:02;95077.91;;;15.80;59.94
20017;BME280;10169;42.664;23.610;2023-03-31T08:50:07;95064.63;;;15.60;59.89
20017;BME280;10169;42.664;23.610;2023-03-31T08:52:12;95070.75;;;15.60;61.20
20017;BME280;10169;42.664;23.610;2023-03-31T08:56:15;95064.84;;;15.63;61.16
20017;BME280;10169;42.664;23.610;2023-03-31T08:58:26;95055.22;;;16.06;61.49
20017;BME280;10169;42.664;23.610;2023-03-31T09:00:30;95048.34;;;16.29;60.09
20017;BME280;10169;42.664;23.610;2023-03-31T09:02:40;95042.94;;;16.91;58.00
20017;BME280;10169;42.664;23.610;2023-03-31T09:07:02;95037.66;;;17.28;56.37
20017;BME280;10169;42.664;23.610;2023-03-31T09:09:06;95030.72;;;16.80;53.64
20017;BME280;10169;42.664;23.610;2023-03-31T09:13:36;95021.38;;;17.01;52.83
20017;BME280;10169;42.664;23.610;2023-03-31T09:15:57;95011.41;;;16.78;52.56
20017;BME280;10169;42.664;23.610;2023-03-31T09:18:01;95010.38;;;16.74;52.27
20017;BME280;10169;42.664;23.610;2023-03-31T09:20:06;95027.25;;;16.51;51.59
20017;BME280;10169;42.664;23.610;2023-03-31T09:22:16;95037.00;;;16.94;52.76
20017;BME280;10169;42.664;23.610;2023-03-31T09:24:20;95017.28;;;16.80;52.85
20017;BME280;10169;42.664;23.610;2023-03-31T09:26:33;95024.09;;;17.81;52.02
20017;BME280;10169;42.664;23.610;2023-03-31T09:28:36;95024.16;;;18.13;51.94
20017;BME280;10169;42.664;23.610;2023-03-31T09:30:38;95021.47;;;17.76;50.43
20017;BME280;10169;42.664;23.610;2023-03-31T09:32:40;95020.63;;;17.38;51.98
20017;BME280;10169;42.664;23.610;2023-03-31T09:34:40;95019.31;;;17.17;52.29
20017;BME280;10169;42.664;23.610;2023-03-31T09:36:41;95027.22;;;16.80;52.01
20017;BME280;10169;42.664;23.610;2023-03-31T09:38:42;95019.38;;;16.59;52.97
20017;BME280;10169;42.664;23.610;2023-03-31T09:40:43;95015.50;;;16.71;53.12
20017;BME280;10169;42.664;23.610;2023-03-31T09:42:44;95013.03;;;16.17;52.18
20017;BME280;10169;42.664;23.610;2023-03-31T09:44:45;95017.28;;;15.89;52.60
20017;BME280;10169;42.664;23.610;2023-03-31T09:46:48;94997.13;;;15.58;53.25
20017;BME280;10169;42.664;23.610;2023-03-31T09:49:00;95004.34;;;15.62;53.72
20017;BME280;10169;42.664;23.610;2023-03-31T09:51:03;95013.94;;;16.07;53.18
20017;BME280;10169;42.664;23.610;2023-03-31T09:53:04;95000.78;;;16.68;51.92
20017;BME280;10169;42.664;23.610;2023-03-31T09:55:51;94999.25;;;17.09;50.79
20017;BME280;10169;42.664;23.610;2023-03-31T09:57:27;94988.88;;;17.64;50.15
20017;BME280;10169;42.664;23.610;2023-03-31T10:01:31;95000.91;;;16.58;50.48
20017;BME280;10169;42.664;23.610;2023-03-31T10:03:40;95002.59;;;17.20;50.58
20017;BME280;10169;42.664;23.610;2023-03-31T10:05:48;94997.38;;;17.71;49.44
20017;BME280;10169;42.664;23.610;2023-03-31T10:07:49;94985.88;;;17.04;49.15
20017;BME280;10169;42.664;23.610;2023-03-31T10:09:51;94985.03;;;16.85;49.35
20017;BME280;10169;42.664;23.610;2023-03-31T10:11:57;94986.22;;;16.98;49.56
20017;BME280;10169;42.664;23.610;2023-03-31T10:13:59;94981.56;;;16.85;49.23
20017;BME280;10169;42.664;23.610;2023-03-31T10:16:02;94976.22;;;17.03;48.96
20017;BME280;10169;42.664;23.610;2023-03-31T10:18:02;94977.34;;;17.21;48.99
20017;BME280;10169;42.664;23.610;2023-03-31T10:20:04;94967.94;;;17.23;49.26
20017;BME280;10169;42.664;23.610;2023-03-31T10:24:22;94968.13;;;16.85;49.36
20017;BME280;10169;42.664;23.610;2023-03-31T10:26:24;94973.31;;;17.00;49.44
20017;BME280;10169;42.664;23.610;2023-03-31T10:28:25;94974.00;;;17.10;49.79
20017;BME280;10169;42.664;23.610;2023-03-31T10:30:28;94969.09;;;16.94;49.64
20017;BME280;10169;42.664;23.610;2023-03-31T10:32:30;94954.25;;;16.78;49.98
20017;BME280;10169;42.664;23.610;2023-03-31T10:34:31;94966.09;;;16.19;50.36
20017;BME280;10169;42.664;23.610;2023-03-31T10:36:32;94960.59;;;16.34;50.87
20017;BME280;10169;42.664;23.610;2023-03-31T10:38:37;94957.38;;;16.04;50.78
20017;BME280;10169;42.664;23.610;2023-03-31T10:40:49;94954.63;;;16.14;50.67
20017;BME280;10169;42.664;23.610;2023-03-31T10:43:12;94936.31;;;16.21;49.87
20017;BME280;10169;42.664;23.610;2023-03-31T10:45:23;94950.81;;;16.20;51.04
20017;BME280;10169;42.664;23.610;2023-03-31T10:47:25;94956.78;;;16.40;51.44
20017;BME280;10169;42.664;23.610;2023-03-31T10:49:25;94947.47;;;16.33;51.52
20017;BME280;10169;42.664;23.610;2023-03-31T10:51:26;94951.00;;;16.28;50.99
20017;BME280;10169;42.664;23.610;2023-03-31T10:53:27;94944.47;;;16.11;51.19
20017;BME280;10169;42.664;23.610;2023-03-31T10:55:30;94949.06;;;16.05;51.75
20017;BME280;10169;42.664;23.610;2023-03-31T10:57:43;94936.81;;;15.94;52.56
20017;BME280;10169;42.664;23.610;2023-03-31T10:59:51;94941.94;;;15.95;52.67
20017;BME280;10169;42.664;23.610;2023-03-31T11:19:18;94920.41;;;16.58;50.63
20017;BME280;10169;42.664;23.610;2023-03-31T11:25:46;94896.81;;;16.55;51.72
20017;BME280;10169;42.664;23.610;2023-03-31T11:30:12;94900.13;;;16.94;50.40
20017;BME280;10169;42.664;23.610;2023-03-31T11:42:58;94885.53;;;16.58;51.26
20017;BME280;10169;42.664;23.610;2023-03-31T11:45:04;94877.28;;;16.73;51.56
20017;BME280;10169;42.664;23.610;2023-03-31T11:47:12;94875.69;;;17.14;50.98
20017;BME280;10169;42.664;23.610;2023-03-31T11:49:17;94871.91;;;17.53;49.90
20017;BME280;10169;42.664;23.610;2023-03-31T11:51:21;94871.56;;;18.19;49.08
20017;BME280;10169;42.664;23.610;2023-03-31T11:53:25;94872.81;;;17.94;47.67
20017;BME280;10169;42.664;23.610;2023-03-31T11:55:29;94863.94;;;18.80;46.68
20017;BME280;10169;42.664;23.610;2023-03-31T11:57:38;94864.09;;;18.43;46.81
20017;BME280;10169;42.664;23.610;2023-03-31T11:59:40;94863.88;;;18.12;46.72
20017;BME280;10169;42.664;23.610;2023-03-31T12:02:16;94862.25;;;18.70;46.76
20017;BME280;10169;42.664;23.610;2023-03-31T12:04:12;94861.56;;;18.65;46.44
20017;BME280;10169;42.664;23.610;2023-03-31T12:06:18;94849.84;;;18.15;46.79
20017;BME280;10169;42.664;23.610;2023-03-31T12:12:30;94846.47;;;18.77;46.12
20017;BME280;10169;42.664;23.610;2023-03-31T12:14:33;94843.28;;;19.25;45.92
20017;BME280;10169;42.664;23.610;2023-03-31T12:16:41;94834.78;;;19.31;44.67
20017;BME280;10169;42.664;23.610;2023-03-31T12:20:55;94830.66;;;18.49;46.33
20017;BME280;10169;42.664;23.610;2023-03-31T12:22:56;94829.53;;;18.63;46.53
20017;BME280;10169;42.664;23.610;2023-03-31T12:24:57;94816.63;;;19.59;44.98
20017;BME280;10169;42.664;23.610;2023-03-31T12:28:59;94815.50;;;20.44;43.11
20017;BME280;10169;42.664;23.610;2023-03-31T12:31:03;94817.53;;;19.77;43.57
20017;BME280;10169;42.664;23.610;2023-03-31T12:33:25;94814.28;;;19.44;44.17
20017;BME280;10169;42.664;23.610;2023-03-31T12:37:38;94821.06;;;18.56;45.02